Terminal Aerodrome Forecast
Issued by NWS

Home | Current Version | Previous Version | Text Only | Print | Product List | Glossary On
Versions: 1 2 3 4 5 6 7 8 9 10 11 12 13 14
000
FTUS46 KSEW 280500
TAFBFI
TAF
KBFI 280530Z 2806/2906 21013G22KT P6SM SCT015 BKN040 OVC060
      TEMPO 2806/2810 P6SM -RA SCT015 OVC026
     FM281000 21013G22KT P6SM -SHRA BKN021 OVC030
     FM282000 21008KT P6SM VCSH SCT021 BKN040 BKN060=

USA.gov is the U.S. government's official web portal to all federal, state and local government web resources and services.